sensor_id;sensor_type;location;lat;lon;timestamp;temperature;humidity
5802;DHT22;2927;49.366;8.530;2023-07-31T00:01:09;18.10;99.90
5802;DHT22;2927;49.366;8.530;2023-07-31T00:03:34;18.00;99.90
5802;DHT22;2927;49.366;8.530;2023-07-31T00:06:00;18.10;99.90
5802;DHT22;2927;49.366;8.530;2023-07-31T00:08:25;18.00;99.90
5802;DHT22;2927;49.366;8.530;2023-07-31T00:10:52;18.00;1.00
5802;DHT22;2927;49.366;8.530;2023-07-31T00:13:18;18.00;1.00
5802;DHT22;2927;49.366;8.530;2023-07-31T00:15:44;18.00;1.00
5802;DHT22;2927;49.366;8.530;2023-07-31T00:18:09;18.00;1.00
5802;DHT22;2927;49.366;8.530;2023-07-31T00:20:35;17.90;1.00
5802;DHT22;2927;49.366;8.530;2023-07-31T00:23:00;17.90;1.00
5802;DHT22;2927;49.366;8.530;2023-07-31T00:25:26;17.90;1.00
5802;DHT22;2927;49.366;8.530;2023-07-31T00:27:51;17.90;15.90
5802;DHT22;2927;49.366;8.530;2023-07-31T00:30:17;17.80;1.00
5802;DHT22;2927;49.366;8.530;2023-07-31T00:32:42;17.80;99.90
5802;DHT22;2927;49.366;8.530;2023-07-31T00:35:08;17.80;99.90
5802;DHT22;2927;49.366;8.530;2023-07-31T00:37:33;17.80;99.90
5802;DHT22;2927;49.366;8.530;2023-07-31T00:40:00;17.70;99.90
5802;DHT22;2927;49.366;8.530;2023-07-31T00:42:26;17.70;99.90
5802;DHT22;2927;49.366;8.530;2023-07-31T00:44:51;17.70;99.90
5802;DHT22;2927;49.366;8.530;2023-07-31T00:47:17;17.70;99.90
5802;DHT22;2927;49.366;8.530;2023-07-31T00:49:43;17.70;99.90
5802;DHT22;2927;49.366;8.530;2023-07-31T00:52:09;17.70;99.90
5802;DHT22;2927;49.366;8.530;2023-07-31T00:54:35;17.70;99.90
5802;DHT22;2927;49.366;8.530;2023-07-31T00:57:02;17.70;99.90
5802;DHT22;2927;49.366;8.530;2023-07-31T00:59:28;17.70;99.90
5802;DHT22;2927;49.366;8.530;2023-07-31T01:01:53;17.60;99.90
5802;DHT22;2927;49.366;8.530;2023-07-31T01:04:19;17.60;99.90
5802;DHT22;2927;49.366;8.530;2023-07-31T01:09:47;17.60;99.90
5802;DHT22;2927;49.366;8.530;2023-07-31T01:12:16;17.50;99.90
5802;DHT22;2927;49.366;8.530;2023-07-31T01:15:01;17.50;99.90
5802;DHT22;2927;49.366;8.530;2023-07-31T01:17:27;17.40;99.90
5802;DHT22;2927;49.366;8.530;2023-07-31T01:19:55;17.50;99.90
5802;DHT22;2927;49.366;8.530;2023-07-31T01:28:14;17.50;99.90
5802;DHT22;2927;49.366;8.530;2023-07-31T01:30:45;17.50;99.90
5802;DHT22;2927;49.366;8.530;2023-07-31T01:33:17;17.60;1.00
5802;DHT22;2927;49.366;8.530;2023-07-31T01:35:44;17.60;1.00
5802;DHT22;2927;49.366;8.530;2023-07-31T01:38:10;17.60;1.00
5802;DHT22;2927;49.366;8.530;2023-07-31T01:40:35;17.60;1.00
5802;DHT22;2927;49.366;8.530;2023-07-31T01:43:01;17.60;1.00
5802;DHT22;2927;49.366;8.530;2023-07-31T01:45:27;17.60;1.00
5802;DHT22;2927;49.366;8.530;2023-07-31T01:47:52;17.60;1.00
5802;DHT22;2927;49.366;8.530;2023-07-31T01:50:18;17.60;1.00
5802;DHT22;2927;49.366;8.530;2023-07-31T01:52:43;17.60;1.00
5802;DHT22;2927;49.366;8.530;2023-07-31T01:55:09;17.60;1.00
5802;DHT22;2927;49.366;8.530;2023-07-31T01:57:36;17.60;1.00
5802;DHT22;2927;49.366;8.530;2023-07-31T02:00:02;17.60;1.00
5802;DHT22;2927;49.366;8.530;2023-07-31T02:02:27;17.60;1.00
5802;DHT22;2927;49.366;8.530;2023-07-31T02:04:53;17.60;1.00
5802;DHT22;2927;49.366;8.530;2023-07-31T02:07:18;17.60;1.00
5802;DHT22;2927;49.366;8.530;2023-07-31T02:09:44;17.50;1.00
5802;DHT22;2927;49.366;8.530;2023-07-31T02:12:09;17.50;99.90
5802;DHT22;2927;49.366;8.530;2023-07-31T02:14:35;17.40;99.90
5802;DHT22;2927;49.366;8.530;2023-07-31T02:17:01;17.40;99.90
5802;DHT22;2927;49.366;8.530;2023-07-31T02:19:26;17.40;99.90
5802;DHT22;2927;49.366;8.530;2023-07-31T02:21:52;17.30;1.00
5802;DHT22;2927;49.366;8.530;2023-07-31T02:24:17;17.30;99.90
5802;DHT22;2927;49.366;8.530;2023-07-31T02:26:43;17.30;99.90
5802;DHT22;2927;49.366;8.530;2023-07-31T02:29:08;17.30;1.00
5802;DHT22;2927;49.366;8.530;2023-07-31T02:31:34;17.30;1.00
5802;DHT22;2927;49.366;8.530;2023-07-31T02:33:59;17.30;99.90
5802;DHT22;2927;49.366;8.530;2023-07-31T02:36:25;17.30;99.90
5802;DHT22;2927;49.366;8.530;2023-07-31T02:38:51;17.30;99.90
5802;DHT22;2927;49.366;8.530;2023-07-31T02:41:16;17.30;99.90
5802;DHT22;2927;49.366;8.530;2023-07-31T02:43:42;17.30;99.90
5802;DHT22;2927;49.366;8.530;2023-07-31T02:46:07;17.30;99.90
5802;DHT22;2927;49.366;8.530;2023-07-31T02:48:33;17.30;99.90
5802;DHT22;2927;49.366;8.530;2023-07-31T02:50:59;17.30;99.90
5802;DHT22;2927;49.366;8.530;2023-07-31T02:53:24;17.30;99.90
5802;DHT22;2927;49.366;8.530;2023-07-31T02:55:50;17.30;99.90
5802;DHT22;2927;49.366;8.530;2023-07-31T02:58:15;17.30;99.90
5802;DHT22;2927;49.366;8.530;2023-07-31T03:00:44;17.30;99.90
5802;DHT22;2927;49.366;8.530;2023-07-31T03:03:10;17.20;1.00
5802;DHT22;2927;49.366;8.530;2023-07-31T03:05:36;17.20;1.00
5802;DHT22;2927;49.366;8.530;2023-07-31T03:08:02;17.20;99.90
5802;DHT22;2927;49.366;8.530;2023-07-31T03:10:27;17.20;99.90
5802;DHT22;2927;49.366;8.530;2023-07-31T03:12:53;17.20;1.00
5802;DHT22;2927;49.366;8.530;2023-07-31T03:15:18;17.10;1.00
5802;DHT22;2927;49.366;8.530;2023-07-31T03:17:44;17.00;1.00
5802;DHT22;2927;49.366;8.530;2023-07-31T03:20:10;17.00;1.00
5802;DHT22;2927;49.366;8.530;2023-07-31T03:22:35;17.00;1.00
5802;DHT22;2927;49.366;8.530;2023-07-31T03:25:04;16.90;1.00
5802;DHT22;2927;49.366;8.530;2023-07-31T03:27:30;16.90;1.00
5802;DHT22;2927;49.366;8.530;2023-07-31T03:29:56;16.90;1.00
5802;DHT22;2927;49.366;8.530;2023-07-31T03:32:22;16.90;1.00
5802;DHT22;2927;49.366;8.530;2023-07-31T03:34:49;16.80;1.00
5802;DHT22;2927;49.366;8.530;2023-07-31T03:37:14;16.80;1.00
5802;DHT22;2927;49.366;8.530;2023-07-31T03:39:40;16.90;1.00
5802;DHT22;2927;49.366;8.530;2023-07-31T03:42:06;16.90;1.00
5802;DHT22;2927;49.366;8.530;2023-07-31T03:44:31;16.90;1.00
5802;DHT22;2927;49.366;8.530;2023-07-31T03:46:57;16.80;1.00
5802;DHT22;2927;49.366;8.530;2023-07-31T03:49:22;16.90;1.00
5802;DHT22;2927;49.366;8.530;2023-07-31T03:51:49;16.90;1.00
5802;DHT22;2927;49.366;8.530;2023-07-31T03:54:15;16.90;1.00
5802;DHT22;2927;49.366;8.530;2023-07-31T03:56:40;16.90;1.00
5802;DHT22;2927;49.366;8.530;2023-07-31T03:59:06;16.90;1.00
5802;DHT22;2927;49.366;8.530;2023-07-31T04:01:31;16.90;1.00
5802;DHT22;2927;49.366;8.530;2023-07-31T04:03:57;16.90;1.00
5802;DHT22;2927;49.366;8.530;2023-07-31T04:06:22;16.90;1.00
5802;DHT22;2927;49.366;8.530;2023-07-31T04:08:48;17.00;1.00
5802;DHT22;2927;49.366;8.530;2023-07-31T04:11:13;17.00;1.00
5802;DHT22;2927;49.366;8.530;2023-07-31T04:13:39;17.00;1.00
5802;DHT22;2927;49.366;8.530;2023-07-31T04:16:05;17.00;1.00
5802;DHT22;2927;49.366;8.530;2023-07-31T04:18:31;17.00;1.00
5802;DHT22;2927;49.366;8.530;2023-07-31T04:20:57;17.10;1.00
5802;DHT22;2927;49.366;8.530;2023-07-31T04:23:27;17.10;99.90
5802;DHT22;2927;49.366;8.530;2023-07-31T04:25:53;17.10;1.00
5802;DHT22;2927;49.366;8.530;2023-07-31T04:28:18;17.10;99.90
5802;DHT22;2927;49.366;8.530;2023-07-31T04:30:44;17.20;99.90
5802;DHT22;2927;49.366;8.530;2023-07-31T04:33:09;17.20;99.90
5802;DHT22;2927;49.366;8.530;2023-07-31T04:35:35;17.10;99.90
5802;DHT22;2927;49.366;8.530;2023-07-31T04:38:01;17.20;99.90
5802;DHT22;2927;49.366;8.530;2023-07-31T04:40:26;17.20;1.00
5802;DHT22;2927;49.366;8.530;2023-07-31T04:42:52;17.10;1.00
5802;DHT22;2927;49.366;8.530;2023-07-31T04:45:17;17.20;1.00
5802;DHT22;2927;49.366;8.530;2023-07-31T04:47:43;17.20;1.00
5802;DHT22;2927;49.366;8.530;2023-07-31T04:50:09;17.20;1.00
5802;DHT22;2927;49.366;8.530;2023-07-31T04:52:34;17.20;1.00
5802;DHT22;2927;49.366;8.530;2023-07-31T04:55:00;17.20;1.00
5802;DHT22;2927;49.366;8.530;2023-07-31T04:57:25;17.30;1.00
5802;DHT22;2927;49.366;8.530;2023-07-31T04:59:51;17.30;1.00
5802;DHT22;2927;49.366;8.530;2023-07-31T05:02:16;17.30;1.00
5802;DHT22;2927;49.366;8.530;2023-07-31T05:04:42;17.40;99.90
5802;DHT22;2927;49.366;8.530;2023-07-31T05:07:07;17.50;99.90
5802;DHT22;2927;49.366;8.530;2023-07-31T05:09:33;17.50;99.90
5802;DHT22;2927;49.366;8.530;2023-07-31T05:11:59;17.50;99.90
5802;DHT22;2927;49.366;8.530;2023-07-31T05:14:25;17.50;74.10
5802;DHT22;2927;49.366;8.530;2023-07-31T05:16:51;17.50;11.90
5802;DHT22;2927;49.366;8.530;2023-07-31T05:19:17;17.50;99.90
5802;DHT22;2927;49.366;8.530;2023-07-31T05:21:42;17.60;1.00
5802;DHT22;2927;49.366;8.530;2023-07-31T05:24:08;17.60;1.00
5802;DHT22;2927;49.366;8.530;2023-07-31T05:26:33;17.60;62.70
5802;DHT22;2927;49.366;8.530;2023-07-31T05:28:59;17.60;76.40
5802;DHT22;2927;49.366;8.530;2023-07-31T05:31:25;17.50;1.00
5802;DHT22;2927;49.366;8.530;2023-07-31T05:33:51;17.50;99.90
5802;DHT22;2927;49.366;8.530;2023-07-31T05:36:17;17.50;99.90
5802;DHT22;2927;49.366;8.530;2023-07-31T05:38:42;17.50;99.90
5802;DHT22;2927;49.366;8.530;2023-07-31T05:41:11;17.60;99.90
5802;DHT22;2927;49.366;8.530;2023-07-31T05:43:36;17.60;99.90
5802;DHT22;2927;49.366;8.530;2023-07-31T05:46:02;17.60;99.90
5802;DHT22;2927;49.366;8.530;2023-07-31T05:48:27;17.60;99.90
5802;DHT22;2927;49.366;8.530;2023-07-31T05:50:53;17.60;1.00
5802;DHT22;2927;49.366;8.530;2023-07-31T05:53:18;17.60;1.00
5802;DHT22;2927;49.366;8.530;2023-07-31T05:55:44;17.70;1.00
5802;DHT22;2927;49.366;8.530;2023-07-31T05:58:10;17.70;99.90
5802;DHT22;2927;49.366;8.530;2023-07-31T06:00:35;17.70;99.90
5802;DHT22;2927;49.366;8.530;2023-07-31T06:03:01;17.80;99.90
5802;DHT22;2927;49.366;8.530;2023-07-31T06:05:27;17.80;93.80
5802;DHT22;2927;49.366;8.530;2023-07-31T06:07:54;17.80;99.90
5802;DHT22;2927;49.366;8.530;2023-07-31T06:10:19;17.80;99.90
5802;DHT22;2927;49.366;8.530;2023-07-31T06:12:45;17.80;99.90
5802;DHT22;2927;49.366;8.530;2023-07-31T06:15:11;17.90;99.90
5802;DHT22;2927;49.366;8.530;2023-07-31T06:17:36;17.90;99.90
5802;DHT22;2927;49.366;8.530;2023-07-31T06:20:02;18.00;99.90
5802;DHT22;2927;49.366;8.530;2023-07-31T06:22:30;18.00;99.90
5802;DHT22;2927;49.366;8.530;2023-07-31T06:24:56;18.10;75.80
5802;DHT22;2927;49.366;8.530;2023-07-31T06:27:21;18.10;1.00
5802;DHT22;2927;49.366;8.530;2023-07-31T06:29:47;18.20;1.00
5802;DHT22;2927;49.366;8.530;2023-07-31T06:32:13;18.30;1.00
5802;DHT22;2927;49.366;8.530;2023-07-31T06:34:39;18.30;1.00
5802;DHT22;2927;49.366;8.530;2023-07-31T06:37:04;18.30;1.00
5802;DHT22;2927;49.366;8.530;2023-07-31T06:39:30;18.30;1.00
5802;DHT22;2927;49.366;8.530;2023-07-31T06:41:56;18.30;1.00
5802;DHT22;2927;49.366;8.530;2023-07-31T06:44:21;18.40;1.00
5802;DHT22;2927;49.366;8.530;2023-07-31T06:46:47;18.50;1.00
5802;DHT22;2927;49.366;8.530;2023-07-31T06:49:12;18.70;99.90
5802;DHT22;2927;49.366;8.530;2023-07-31T06:51:40;18.80;99.90
5802;DHT22;2927;49.366;8.530;2023-07-31T06:54:06;18.90;1.00
5802;DHT22;2927;49.366;8.530;2023-07-31T06:56:31;19.00;3.90
5802;DHT22;2927;49.366;8.530;2023-07-31T06:58:57;18.90;1.00
5802;DHT22;2927;49.366;8.530;2023-07-31T07:01:23;18.90;1.00
5802;DHT22;2927;49.366;8.530;2023-07-31T07:03:48;18.90;10.80
5802;DHT22;2927;49.366;8.530;2023-07-31T07:06:16;18.90;99.90
5802;DHT22;2927;49.366;8.530;2023-07-31T07:08:42;18.90;19.80
5802;DHT22;2927;49.366;8.530;2023-07-31T07:11:07;19.00;99.90
5802;DHT22;2927;49.366;8.530;2023-07-31T07:13:33;19.20;1.00
5802;DHT22;2927;49.366;8.530;2023-07-31T07:15:59;19.50;1.00
5802;DHT22;2927;49.366;8.530;2023-07-31T07:18:24;20.20;99.90
5802;DHT22;2927;49.366;8.530;2023-07-31T07:20:51;20.70;1.00
5802;DHT22;2927;49.366;8.530;2023-07-31T07:23:17;20.90;1.00
5802;DHT22;2927;49.366;8.530;2023-07-31T07:25:45;20.70;1.00
5802;DHT22;2927;49.366;8.530;2023-07-31T07:28:11;20.30;1.00
5802;DHT22;2927;49.366;8.530;2023-07-31T07:30:37;20.40;1.00
5802;DHT22;2927;49.366;8.530;2023-07-31T07:33:03;20.60;1.00
5802;DHT22;2927;49.366;8.530;2023-07-31T07:35:28;20.80;1.00
5802;DHT22;2927;49.366;8.530;2023-07-31T07:37:54;21.00;1.00
5802;DHT22;2927;49.366;8.530;2023-07-31T07:40:21;21.00;1.00
5802;DHT22;2927;49.366;8.530;2023-07-31T07:42:46;20.70;1.00
5802;DHT22;2927;49.366;8.530;2023-07-31T07:45:12;20.50;1.00
5802;DHT22;2927;49.366;8.530;2023-07-31T07:47:40;20.30;1.00
5802;DHT22;2927;49.366;8.530;2023-07-31T07:50:06;20.30;49.40
5802;DHT22;2927;49.366;8.530;2023-07-31T07:52:32;20.20;1.00
5802;DHT22;2927;49.366;8.530;2023-07-31T07:54:57;20.30;37.40
5802;DHT22;2927;49.366;8.530;2023-07-31T07:57:23;20.40;1.00
5802;DHT22;2927;49.366;8.530;2023-07-31T07:59:48;20.40;1.00
5802;DHT22;2927;49.366;8.530;2023-07-31T08:02:14;20.40;1.00
5802;DHT22;2927;49.366;8.530;2023-07-31T08:04:39;20.40;1.00
5802;DHT22;2927;49.366;8.530;2023-07-31T08:07:05;20.40;1.00
5802;DHT22;2927;49.366;8.530;2023-07-31T08:09:30;21.00;1.00
5802;DHT22;2927;49.366;8.530;2023-07-31T08:11:56;21.70;1.00
5802;DHT22;2927;49.366;8.530;2023-07-31T08:14:27;21.90;1.00
5802;DHT22;2927;49.366;8.530;2023-07-31T08:16:52;21.90;99.90
5802;DHT22;2927;49.366;8.530;2023-07-31T08:19:18;21.70;99.90
5802;DHT22;2927;49.366;8.530;2023-07-31T08:21:43;21.60;1.00
5802;DHT22;2927;49.366;8.530;2023-07-31T08:24:09;21.50;1.00
5802;DHT22;2927;49.366;8.530;2023-07-31T08:26:34;21.50;1.00
5802;DHT22;2927;49.366;8.530;2023-07-31T08:29:00;21.30;1.00
5802;DHT22;2927;49.366;8.530;2023-07-31T08:31:25;21.20;1.00
5802;DHT22;2927;49.366;8.530;2023-07-31T08:33:52;21.20;1.00
5802;DHT22;2927;49.366;8.530;2023-07-31T08:36:17;21.40;1.00
5802;DHT22;2927;49.366;8.530;2023-07-31T08:38:44;21.50;1.00
5802;DHT22;2927;49.366;8.530;2023-07-31T08:41:10;21.50;1.00
5802;DHT22;2927;49.366;8.530;2023-07-31T08:43:36;21.60;99.90
5802;DHT22;2927;49.366;8.530;2023-07-31T08:46:03;21.80;99.90
5802;DHT22;2927;49.366;8.530;2023-07-31T08:48:29;22.10;99.90
5802;DHT22;2927;49.366;8.530;2023-07-31T08:50:56;22.50;99.90
5802;DHT22;2927;49.366;8.530;2023-07-31T08:53:22;23.20;99.90
5802;DHT22;2927;49.366;8.530;2023-07-31T08:55:49;24.50;99.90
5802;DHT22;2927;49.366;8.530;2023-07-31T08:58:15;25.20;5.40
5802;DHT22;2927;49.366;8.530;2023-07-31T09:00:42;24.40;17.80
5802;DHT22;2927;49.366;8.530;2023-07-31T09:03:15;24.00;69.00
5802;DHT22;2927;49.366;8.530;2023-07-31T09:05:45;23.70;95.60
5802;DHT22;2927;49.366;8.530;2023-07-31T09:08:18;23.40;97.50
5802;DHT22;2927;49.366;8.530;2023-07-31T09:10:45;23.30;99.90
5802;DHT22;2927;49.366;8.530;2023-07-31T09:13:12;23.80;99.90
5802;DHT22;2927;49.366;8.530;2023-07-31T09:15:39;24.20;26.00
5802;DHT22;2927;49.366;8.530;2023-07-31T09:18:06;24.90;1.00
5802;DHT22;2927;49.366;8.530;2023-07-31T09:20:32;26.10;1.00
5802;DHT22;2927;49.366;8.530;2023-07-31T09:25:32;27.40;1.00
5802;DHT22;2927;49.366;8.530;2023-07-31T09:27:59;28.00;1.00
5802;DHT22;2927;49.366;8.530;2023-07-31T09:30:25;28.80;1.00
5802;DHT22;2927;49.366;8.530;2023-07-31T09:32:59;29.50;1.00
5802;DHT22;2927;49.366;8.530;2023-07-31T09:35:30;28.80;1.00
5802;DHT22;2927;49.366;8.530;2023-07-31T09:38:03;28.90;1.00
5802;DHT22;2927;49.366;8.530;2023-07-31T09:40:48;28.40;1.00
5802;DHT22;2927;49.366;8.530;2023-07-31T09:43:19;27.50;1.00
5802;DHT22;2927;49.366;8.530;2023-07-31T09:45:45;28.20;1.00
5802;DHT22;2927;49.366;8.530;2023-07-31T09:48:16;28.50;1.00
5802;DHT22;2927;49.366;8.530;2023-07-31T09:50:47;29.10;1.00
5802;DHT22;2927;49.366;8.530;2023-07-31T09:53:13;30.00;1.00
5802;DHT22;2927;49.366;8.530;2023-07-31T09:55:40;30.80;1.00
5802;DHT22;2927;49.366;8.530;2023-07-31T09:58:08;31.00;1.00
5802;DHT22;2927;49.366;8.530;2023-07-31T10:00:34;29.40;1.00
5802;DHT22;2927;49.366;8.530;2023-07-31T10:03:02;28.60;1.00
5802;DHT22;2927;49.366;8.530;2023-07-31T10:08:00;28.90;1.00
5802;DHT22;2927;49.366;8.530;2023-07-31T10:10:27;28.50;1.00
5802;DHT22;2927;49.366;8.530;2023-07-31T10:12:53;27.60;1.00
5802;DHT22;2927;49.366;8.530;2023-07-31T10:15:19;27.10;1.00
5802;DHT22;2927;49.366;8.530;2023-07-31T10:17:47;26.30;1.00
5802;DHT22;2927;49.366;8.530;2023-07-31T10:20:14;26.00;1.00
5802;DHT22;2927;49.366;8.530;2023-07-31T10:22:42;25.80;1.00
5802;DHT22;2927;49.366;8.530;2023-07-31T10:25:08;25.40;1.00
5802;DHT22;2927;49.366;8.530;2023-07-31T10:27:35;25.30;1.00
5802;DHT22;2927;49.366;8.530;2023-07-31T10:30:03;25.30;1.00
5802;DHT22;2927;49.366;8.530;2023-07-31T10:32:30;25.20;1.00
5802;DHT22;2927;49.366;8.530;2023-07-31T10:34:56;25.40;1.00
5802;DHT22;2927;49.366;8.530;2023-07-31T10:37:28;25.40;1.00
5802;DHT22;2927;49.366;8.530;2023-07-31T10:42:34;25.90;1.00
5802;DHT22;2927;49.366;8.530;2023-07-31T10:45:03;26.30;1.00
5802;DHT22;2927;49.366;8.530;2023-07-31T10:47:29;26.50;1.00
5802;DHT22;2927;49.366;8.530;2023-07-31T10:50:21;26.20;1.00
5802;DHT22;2927;49.366;8.530;2023-07-31T10:52:48;25.70;1.00
5802;DHT22;2927;49.366;8.530;2023-07-31T10:57:44;25.60;1.00
5802;DHT22;2927;49.366;8.530;2023-07-31T11:00:29;25.20;1.00
5802;DHT22;2927;49.366;8.530;2023-07-31T11:08:28;24.30;1.00
5802;DHT22;2927;49.366;8.530;2023-07-31T11:15:57;24.10;1.00
5802;DHT22;2927;49.366;8.530;2023-07-31T11:18:23;24.00;1.00
5802;DHT22;2927;49.366;8.530;2023-07-31T11:20:49;24.10;1.00
5802;DHT22;2927;49.366;8.530;2023-07-31T11:23:17;24.00;1.00
5802;DHT22;2927;49.366;8.530;2023-07-31T11:25:42;24.40;1.00
5802;DHT22;2927;49.366;8.530;2023-07-31T11:28:10;24.50;1.00
5802;DHT22;2927;49.366;8.530;2023-07-31T11:30:37;24.50;1.00
5802;DHT22;2927;49.366;8.530;2023-07-31T11:33:04;24.40;1.00
5802;DHT22;2927;49.366;8.530;2023-07-31T11:35:32;24.20;1.00
5802;DHT22;2927;49.366;8.530;2023-07-31T11:37:58;24.00;1.00
5802;DHT22;2927;49.366;8.530;2023-07-31T11:40:23;23.70;1.00
5802;DHT22;2927;49.366;8.530;2023-07-31T11:42:57;23.60;1.00
5802;DHT22;2927;49.366;8.530;2023-07-31T11:45:25;23.70;1.00
5802;DHT22;2927;49.366;8.530;2023-07-31T11:47:52;23.80;1.00
5802;DHT22;2927;49.366;8.530;2023-07-31T11:50:18;24.00;1.00
5802;DHT22;2927;49.366;8.530;2023-07-31T11:52:46;24.10;1.00
5802;DHT22;2927;49.366;8.530;2023-07-31T11:55:14;24.30;1.00
5802;DHT22;2927;49.366;8.530;2023-07-31T11:57:41;24.40;1.00
5802;DHT22;2927;49.366;8.530;2023-07-31T12:00:08;24.40;1.00
5802;DHT22;2927;49.366;8.530;2023-07-31T12:02:36;24.30;1.00
5802;DHT22;2927;49.366;8.530;2023-07-31T12:05:02;24.40;1.00
5802;DHT22;2927;49.366;8.530;2023-07-31T12:07:43;24.60;1.00
5802;DHT22;2927;49.366;8.530;2023-07-31T12:10:09;24.60;1.00
5802;DHT22;2927;49.366;8.530;2023-07-31T12:12:34;24.60;1.00
5802;DHT22;2927;49.366;8.530;2023-07-31T12:14:59;24.70;1.00
5802;DHT22;2927;49.366;8.530;2023-07-31T12:17:25;24.80;1.00
5802;DHT22;2927;49.366;8.530;2023-07-31T12:19:51;24.80;1.00
5802;DHT22;2927;49.366;8.530;2023-07-31T12:22:16;24.80;1.00
5802;DHT22;2927;49.366;8.530;2023-07-31T12:24:43;25.00;1.00
5802;DHT22;2927;49.366;8.530;2023-07-31T12:27:13;25.10;1.00
5802;DHT22;2927;49.366;8.530;2023-07-31T12:29:42;25.40;1.00
5802;DHT22;2927;49.366;8.530;2023-07-31T12:32:25;25.60;1.00
5802;DHT22;2927;49.366;8.530;2023-07-31T12:34:51;25.70;1.00
5802;DHT22;2927;49.366;8.530;2023-07-31T12:37:17;25.60;1.00
5802;DHT22;2927;49.366;8.530;2023-07-31T12:39:43;25.70;1.00
5802;DHT22;2927;49.366;8.530;2023-07-31T12:42:08;25.90;1.00
5802;DHT22;2927;49.366;8.530;2023-07-31T12:44:34;26.00;1.00
5802;DHT22;2927;49.366;8.530;2023-07-31T12:46:59;25.90;1.00
5802;DHT22;2927;49.366;8.530;2023-07-31T12:49:25;25.90;1.00
5802;DHT22;2927;49.366;8.530;2023-07-31T12:51:50;25.70;1.00
5802;DHT22;2927;49.366;8.530;2023-07-31T12:54:16;25.20;1.00
5802;DHT22;2927;49.366;8.530;2023-07-31T12:56:41;25.00;1.00
5802;DHT22;2927;49.366;8.530;2023-07-31T12:59:07;24.90;1.00
5802;DHT22;2927;49.366;8.530;2023-07-31T13:01:32;24.90;1.00
5802;DHT22;2927;49.366;8.530;2023-07-31T13:03:58;25.00;1.00
5802;DHT22;2927;49.366;8.530;2023-07-31T13:06:25;25.10;1.00
5802;DHT22;2927;49.366;8.530;2023-07-31T13:08:51;25.30;1.00
5802;DHT22;2927;49.366;8.530;2023-07-31T13:11:16;25.40;1.00
5802;DHT22;2927;49.366;8.530;2023-07-31T13:13:42;25.50;1.00
5802;DHT22;2927;49.366;8.530;2023-07-31T13:16:07;25.70;1.00
5802;DHT22;2927;49.366;8.530;2023-07-31T13:18:33;25.70;1.00
5802;DHT22;2927;49.366;8.530;2023-07-31T13:20:58;25.70;1.00
5802;DHT22;2927;49.366;8.530;2023-07-31T13:23:24;25.50;1.00
5802;DHT22;2927;49.366;8.530;2023-07-31T13:25:49;25.30;1.00
5802;DHT22;2927;49.366;8.530;2023-07-31T13:28:15;25.40;1.00
5802;DHT22;2927;49.366;8.530;2023-07-31T13:30:40;25.40;1.00
5802;DHT22;2927;49.366;8.530;2023-07-31T13:33:06;25.50;1.00
5802;DHT22;2927;49.366;8.530;2023-07-31T13:35:31;25.60;1.00
5802;DHT22;2927;49.366;8.530;2023-07-31T13:37:57;25.50;1.00
5802;DHT22;2927;49.366;8.530;2023-07-31T13:40:22;25.60;1.00
5802;DHT22;2927;49.366;8.530;2023-07-31T13:42:48;25.60;1.00
5802;DHT22;2927;49.366;8.530;2023-07-31T13:45:14;25.70;1.00
5802;DHT22;2927;49.366;8.530;2023-07-31T13:47:39;25.80;1.00
5802;DHT22;2927;49.366;8.530;2023-07-31T13:50:05;25.70;1.00
5802;DHT22;2927;49.366;8.530;2023-07-31T13:52:31;25.70;1.00
5802;DHT22;2927;49.366;8.530;2023-07-31T13:54:56;25.60;1.00
5802;DHT22;2927;49.366;8.530;2023-07-31T13:57:22;25.60;1.00
5802;DHT22;2927;49.366;8.530;2023-07-31T13:59:48;25.40;1.00
5802;DHT22;2927;49.366;8.530;2023-07-31T14:02:14;25.30;1.00
5802;DHT22;2927;49.366;8.530;2023-07-31T14:04:40;25.20;1.00
5802;DHT22;2927;49.366;8.530;2023-07-31T14:07:06;25.20;1.00
5802;DHT22;2927;49.366;8.530;2023-07-31T14:09:31;25.10;1.00
5802;DHT22;2927;49.366;8.530;2023-07-31T14:11:57;24.90;1.00
5802;DHT22;2927;49.366;8.530;2023-07-31T14:14:22;24.90;1.00
5802;DHT22;2927;49.366;8.530;2023-07-31T14:16:48;24.80;1.00
5802;DHT22;2927;49.366;8.530;2023-07-31T14:19:13;24.60;1.00
5802;DHT22;2927;49.366;8.530;2023-07-31T14:21:39;24.40;1.00
5802;DHT22;2927;49.366;8.530;2023-07-31T14:24:04;24.30;1.00
5802;DHT22;2927;49.366;8.530;2023-07-31T14:26:30;24.30;1.00
5802;DHT22;2927;49.366;8.530;2023-07-31T14:28:55;24.20;1.00
5802;DHT22;2927;49.366;8.530;2023-07-31T14:31:21;24.20;1.00
5802;DHT22;2927;49.366;8.530;2023-07-31T14:33:46;24.20;1.00
5802;DHT22;2927;49.366;8.530;2023-07-31T14:36:12;24.20;1.00
5802;DHT22;2927;49.366;8.530;2023-07-31T14:38:37;24.40;1.00
5802;DHT22;2927;49.366;8.530;2023-07-31T14:41:03;24.50;1.00
5802;DHT22;2927;49.366;8.530;2023-07-31T14:43:29;24.50;1.00
5802;DHT22;2927;49.366;8.530;2023-07-31T14:45:54;24.60;1.00
5802;DHT22;2927;49.366;8.530;2023-07-31T14:48:23;24.60;1.00
5802;DHT22;2927;49.366;8.530;2023-07-31T14:50:48;24.60;1.00
5802;DHT22;2927;49.366;8.530;2023-07-31T14:53:14;24.60;1.00
5802;DHT22;2927;49.366;8.530;2023-07-31T14:55:39;24.90;1.00
5802;DHT22;2927;49.366;8.530;2023-07-31T14:58:05;25.20;1.00
5802;DHT22;2927;49.366;8.530;2023-07-31T15:00:32;25.40;1.00
5802;DHT22;2927;49.366;8.530;2023-07-31T15:02:57;25.60;1.00
5802;DHT22;2927;49.366;8.530;2023-07-31T15:05:23;25.80;1.00
5802;DHT22;2927;49.366;8.530;2023-07-31T15:07:48;25.80;1.00
5802;DHT22;2927;49.366;8.530;2023-07-31T15:10:14;25.70;1.00
5802;DHT22;2927;49.366;8.530;2023-07-31T15:12:41;25.50;1.00
5802;DHT22;2927;49.366;8.530;2023-07-31T15:15:07;25.60;1.00
5802;DHT22;2927;49.366;8.530;2023-07-31T15:17:33;25.50;1.00
5802;DHT22;2927;49.366;8.530;2023-07-31T15:20:00;25.50;1.00
5802;DHT22;2927;49.366;8.530;2023-07-31T15:22:26;25.50;1.00
5802;DHT22;2927;49.366;8.530;2023-07-31T15:24:51;25.30;1.00
5802;DHT22;2927;49.366;8.530;2023-07-31T15:27:17;25.30;1.00
5802;DHT22;2927;49.366;8.530;2023-07-31T15:29:42;25.30;1.00
5802;DHT22;2927;49.366;8.530;2023-07-31T15:32:08;25.40;1.00
5802;DHT22;2927;49.366;8.530;2023-07-31T15:34:34;25.50;1.00
5802;DHT22;2927;49.366;8.530;2023-07-31T15:36:59;25.30;1.00
5802;DHT22;2927;49.366;8.530;2023-07-31T15:39:25;25.30;1.00
5802;DHT22;2927;49.366;8.530;2023-07-31T15:41:51;25.10;1.00
5802;DHT22;2927;49.366;8.530;2023-07-31T15:44:16;25.10;1.00
5802;DHT22;2927;49.366;8.530;2023-07-31T15:46:42;25.10;1.00
5802;DHT22;2927;49.366;8.530;2023-07-31T15:49:07;25.20;1.00
5802;DHT22;2927;49.366;8.530;2023-07-31T15:51:33;25.10;1.00
5802;DHT22;2927;49.366;8.530;2023-07-31T15:53:59;24.90;1.00
5802;DHT22;2927;49.366;8.530;2023-07-31T15:56:24;24.70;1.00
5802;DHT22;2927;49.366;8.530;2023-07-31T15:58:50;24.60;1.00
5802;DHT22;2927;49.366;8.530;2023-07-31T16:01:16;24.50;1.00
5802;DHT22;2927;49.366;8.530;2023-07-31T16:03:41;24.50;1.00
5802;DHT22;2927;49.366;8.530;2023-07-31T16:06:07;24.30;91.50
5802;DHT22;2927;49.366;8.530;2023-07-31T16:08:32;24.20;99.90
5802;DHT22;2927;49.366;8.530;2023-07-31T16:10:58;24.20;99.90
5802;DHT22;2927;49.366;8.530;2023-07-31T16:13:23;24.10;1.00
5802;DHT22;2927;49.366;8.530;2023-07-31T16:15:49;24.00;99.90
5802;DHT22;2927;49.366;8.530;2023-07-31T16:18:14;23.80;99.90
5802;DHT22;2927;49.366;8.530;2023-07-31T16:20:40;23.70;99.90
5802;DHT22;2927;49.366;8.530;2023-07-31T16:23:05;23.50;99.90
5802;DHT22;2927;49.366;8.530;2023-07-31T16:25:32;23.50;99.90
5802;DHT22;2927;49.366;8.530;2023-07-31T16:27:58;23.40;99.90
5802;DHT22;2927;49.366;8.530;2023-07-31T16:30:23;23.40;99.90
5802;DHT22;2927;49.366;8.530;2023-07-31T16:32:49;23.30;99.90
5802;DHT22;2927;49.366;8.530;2023-07-31T16:35:15;23.20;99.90